sensor_id;sensor_type;location;lat;lon;timestamp;temperature;humidity
13835;DHT22;6988;52.614;13.500;2023-05-07T00:01:47;8.70;99.90
13835;DHT22;6988;52.614;13.500;2023-05-07T00:06:39;8.70;99.90
13835;DHT22;6988;52.614;13.500;2023-05-07T00:11:31;8.70;99.90
13835;DHT22;6988;52.614;13.500;2023-05-07T00:16:24;8.70;99.90
13835;DHT22;6988;52.614;13.500;2023-05-07T00:21:17;8.70;99.90
13835;DHT22;6988;52.614;13.500;2023-05-07T00:26:09;8.70;99.90
13835;DHT22;6988;52.614;13.500;2023-05-07T00:31:01;8.70;99.90
13835;DHT22;6988;52.614;13.500;2023-05-07T00:35:53;8.50;99.90
13835;DHT22;6988;52.614;13.500;2023-05-07T00:40:47;8.50;99.90
13835;DHT22;6988;52.614;13.500;2023-05-07T00:45:39;8.50;99.90
13835;DHT22;6988;52.614;13.500;2023-05-07T00:50:31;8.40;99.90
13835;DHT22;6988;52.614;13.500;2023-05-07T00:55:24;8.40;99.90
13835;DHT22;6988;52.614;13.500;2023-05-07T01:00:18;8.50;99.90
13835;DHT22;6988;52.614;13.500;2023-05-07T01:05:12;8.60;99.90
13835;DHT22;6988;52.614;13.500;2023-05-07T01:10:09;8.60;99.90
13835;DHT22;6988;52.614;13.500;2023-05-07T01:15:04;8.50;99.90
13835;DHT22;6988;52.614;13.500;2023-05-07T01:20:00;8.50;99.90
13835;DHT22;6988;52.614;13.500;2023-05-07T01:24:54;8.50;99.90
13835;DHT22;6988;52.614;13.500;2023-05-07T01:29:47;8.50;99.90
13835;DHT22;6988;52.614;13.500;2023-05-07T01:34:40;8.50;99.90
13835;DHT22;6988;52.614;13.500;2023-05-07T01:39:32;8.50;99.90
13835;DHT22;6988;52.614;13.500;2023-05-07T01:44:27;8.50;99.90
13835;DHT22;6988;52.614;13.500;2023-05-07T01:49:20;8.50;99.90
13835;DHT22;6988;52.614;13.500;2023-05-07T01:54:12;8.60;99.90
13835;DHT22;6988;52.614;13.500;2023-05-07T01:59:05;8.60;99.90
13835;DHT22;6988;52.614;13.500;2023-05-07T02:03:59;8.50;99.90
13835;DHT22;6988;52.614;13.500;2023-05-07T02:08:53;8.50;99.90
13835;DHT22;6988;52.614;13.500;2023-05-07T02:13:45;8.50;99.90
13835;DHT22;6988;52.614;13.500;2023-05-07T02:18:37;8.40;99.90
13835;DHT22;6988;52.614;13.500;2023-05-07T02:23:30;8.40;99.90
13835;DHT22;6988;52.614;13.500;2023-05-07T02:28:23;8.50;99.90
13835;DHT22;6988;52.614;13.500;2023-05-07T02:33:26;8.50;99.90
13835;DHT22;6988;52.614;13.500;2023-05-07T02:38:18;8.50;99.90
13835;DHT22;6988;52.614;13.500;2023-05-07T02:43:11;8.40;99.90
13835;DHT22;6988;52.614;13.500;2023-05-07T02:48:07;8.40;99.90
13835;DHT22;6988;52.614;13.500;2023-05-07T02:52:59;8.40;99.90
13835;DHT22;6988;52.614;13.500;2023-05-07T02:57:52;8.40;99.90
13835;DHT22;6988;52.614;13.500;2023-05-07T03:02:45;8.30;99.90
13835;DHT22;6988;52.614;13.500;2023-05-07T03:07:38;8.30;99.90
13835;DHT22;6988;52.614;13.500;2023-05-07T03:12:30;8.30;99.90
13835;DHT22;6988;52.614;13.500;2023-05-07T03:17:22;8.30;99.90
13835;DHT22;6988;52.614;13.500;2023-05-07T03:22:15;8.30;99.90
13835;DHT22;6988;52.614;13.500;2023-05-07T03:27:07;8.30;99.90
13835;DHT22;6988;52.614;13.500;2023-05-07T03:32:00;8.30;99.90
13835;DHT22;6988;52.614;13.500;2023-05-07T03:36:52;8.30;99.90
13835;DHT22;6988;52.614;13.500;2023-05-07T03:41:48;8.20;99.90
13835;DHT22;6988;52.614;13.500;2023-05-07T03:46:40;8.20;99.90
13835;DHT22;6988;52.614;13.500;2023-05-07T03:51:35;8.30;99.90
13835;DHT22;6988;52.614;13.500;2023-05-07T03:56:29;8.40;99.90
13835;DHT22;6988;52.614;13.500;2023-05-07T04:01:24;8.40;99.90
13835;DHT22;6988;52.614;13.500;2023-05-07T04:06:16;8.40;99.90
13835;DHT22;6988;52.614;13.500;2023-05-07T04:11:11;8.30;99.90
13835;DHT22;6988;52.614;13.500;2023-05-07T04:16:05;8.20;99.90
13835;DHT22;6988;52.614;13.500;2023-05-07T04:21:01;8.20;99.90
13835;DHT22;6988;52.614;13.500;2023-05-07T04:25:53;8.30;99.90
13835;DHT22;6988;52.614;13.500;2023-05-07T04:30:52;8.30;99.90
13835;DHT22;6988;52.614;13.500;2023-05-07T04:35:45;8.40;99.90
13835;DHT22;6988;52.614;13.500;2023-05-07T04:40:39;8.40;99.90
13835;DHT22;6988;52.614;13.500;2023-05-07T04:45:34;8.30;99.90
13835;DHT22;6988;52.614;13.500;2023-05-07T04:50:27;8.30;99.90
13835;DHT22;6988;52.614;13.500;2023-05-07T04:55:23;8.30;99.90
13835;DHT22;6988;52.614;13.500;2023-05-07T05:00:17;8.40;99.90
13835;DHT22;6988;52.614;13.500;2023-05-07T05:05:10;8.50;99.90
13835;DHT22;6988;52.614;13.500;2023-05-07T05:10:04;8.40;99.90
13835;DHT22;6988;52.614;13.500;2023-05-07T05:15:00;8.40;99.90
13835;DHT22;6988;52.614;13.500;2023-05-07T05:19:54;8.50;99.90
13835;DHT22;6988;52.614;13.500;2023-05-07T05:24:47;8.60;99.90
13835;DHT22;6988;52.614;13.500;2023-05-07T05:29:39;8.60;99.90
13835;DHT22;6988;52.614;13.500;2023-05-07T05:34:31;8.70;99.90
13835;DHT22;6988;52.614;13.500;2023-05-07T05:39:26;9.00;99.90
13835;DHT22;6988;52.614;13.500;2023-05-07T05:44:18;9.00;99.90
13835;DHT22;6988;52.614;13.500;2023-05-07T05:49:10;9.10;99.90
13835;DHT22;6988;52.614;13.500;2023-05-07T05:54:04;9.20;99.90
13835;DHT22;6988;52.614;13.500;2023-05-07T05:58:58;9.30;99.90
13835;DHT22;6988;52.614;13.500;2023-05-07T06:03:51;9.40;99.90
13835;DHT22;6988;52.614;13.500;2023-05-07T06:08:43;9.40;99.90
13835;DHT22;6988;52.614;13.500;2023-05-07T06:13:38;9.50;99.90
13835;DHT22;6988;52.614;13.500;2023-05-07T06:18:32;9.90;99.90
13835;DHT22;6988;52.614;13.500;2023-05-07T06:23:27;10.10;99.90
13835;DHT22;6988;52.614;13.500;2023-05-07T06:28:19;10.30;99.90
13835;DHT22;6988;52.614;13.500;2023-05-07T06:33:11;10.10;99.90
13835;DHT22;6988;52.614;13.500;2023-05-07T06:38:05;10.00;99.90
13835;DHT22;6988;52.614;13.500;2023-05-07T06:42:57;9.90;99.90
13835;DHT22;6988;52.614;13.500;2023-05-07T06:48:00;10.00;99.90
13835;DHT22;6988;52.614;13.500;2023-05-07T06:52:55;10.00;99.90
13835;DHT22;6988;52.614;13.500;2023-05-07T06:57:48;10.30;99.90
13835;DHT22;6988;52.614;13.500;2023-05-07T07:02:42;10.50;99.90
13835;DHT22;6988;52.614;13.500;2023-05-07T07:07:35;10.70;99.90
13835;DHT22;6988;52.614;13.500;2023-05-07T07:12:27;11.10;99.90
13835;DHT22;6988;52.614;13.500;2023-05-07T07:17:21;11.30;99.90
13835;DHT22;6988;52.614;13.500;2023-05-07T07:22:17;11.30;99.90
13835;DHT22;6988;52.614;13.500;2023-05-07T07:27:08;11.50;99.90
13835;DHT22;6988;52.614;13.500;2023-05-07T07:32:01;11.90;99.90
13835;DHT22;6988;52.614;13.500;2023-05-07T07:36:55;12.40;99.90
13835;DHT22;6988;52.614;13.500;2023-05-07T07:41:48;12.60;99.90
13835;DHT22;6988;52.614;13.500;2023-05-07T07:46:41;12.70;99.90
13835;DHT22;6988;52.614;13.500;2023-05-07T07:51:33;13.00;99.90
13835;DHT22;6988;52.614;13.500;2023-05-07T07:56:28;13.40;99.90
13835;DHT22;6988;52.614;13.500;2023-05-07T08:01:20;13.80;99.90
13835;DHT22;6988;52.614;13.500;2023-05-07T08:06:12;13.80;99.90
13835;DHT22;6988;52.614;13.500;2023-05-07T08:11:05;13.80;99.90
13835;DHT22;6988;52.614;13.500;2023-05-07T08:16:01;14.00;99.90
13835;DHT22;6988;52.614;13.500;2023-05-07T08:20:53;14.10;99.90
13835;DHT22;6988;52.614;13.500;2023-05-07T08:25:48;14.40;99.90
13835;DHT22;6988;52.614;13.500;2023-05-07T08:30:42;14.70;99.90
13835;DHT22;6988;52.614;13.500;2023-05-07T08:35:35;14.40;99.90
13835;DHT22;6988;52.614;13.500;2023-05-07T08:40:28;14.00;99.90
13835;DHT22;6988;52.614;13.500;2023-05-07T08:45:24;13.80;99.90
13835;DHT22;6988;52.614;13.500;2023-05-07T08:50:20;14.10;99.90
13835;DHT22;6988;52.614;13.500;2023-05-07T08:55:15;14.10;99.90
13835;DHT22;6988;52.614;13.500;2023-05-07T09:00:09;14.50;99.90
13835;DHT22;6988;52.614;13.500;2023-05-07T09:05:02;14.50;99.90
13835;DHT22;6988;52.614;13.500;2023-05-07T09:09:55;14.60;99.90
13835;DHT22;6988;52.614;13.500;2023-05-07T09:14:49;14.70;99.90
13835;DHT22;6988;52.614;13.500;2023-05-07T09:19:43;14.70;99.90
13835;DHT22;6988;52.614;13.500;2023-05-07T09:24:35;14.60;99.90
13835;DHT22;6988;52.614;13.500;2023-05-07T09:29:30;14.40;99.90
13835;DHT22;6988;52.614;13.500;2023-05-07T09:34:28;14.30;99.90
13835;DHT22;6988;52.614;13.500;2023-05-07T09:39:20;13.90;99.90
13835;DHT22;6988;52.614;13.500;2023-05-07T09:44:13;13.80;99.90
13835;DHT22;6988;52.614;13.500;2023-05-07T09:49:22;13.50;99.90
13835;DHT22;6988;52.614;13.500;2023-05-07T09:54:22;13.30;99.90
13835;DHT22;6988;52.614;13.500;2023-05-07T09:59:18;13.60;99.90
13835;DHT22;6988;52.614;13.500;2023-05-07T10:04:14;13.30;99.90
13835;DHT22;6988;52.614;13.500;2023-05-07T10:09:08;13.70;99.90
13835;DHT22;6988;52.614;13.500;2023-05-07T10:14:04;13.80;99.90
13835;DHT22;6988;52.614;13.500;2023-05-07T10:18:58;14.00;99.90
13835;DHT22;6988;52.614;13.500;2023-05-07T10:23:57;14.00;99.90
13835;DHT22;6988;52.614;13.500;2023-05-07T10:28:56;13.80;99.90
13835;DHT22;6988;52.614;13.500;2023-05-07T10:33:55;14.00;99.90
13835;DHT22;6988;52.614;13.500;2023-05-07T10:38:50;14.30;99.90
13835;DHT22;6988;52.614;13.500;2023-05-07T10:43:43;14.50;99.90
13835;DHT22;6988;52.614;13.500;2023-05-07T10:49:11;14.40;99.90
13835;DHT22;6988;52.614;13.500;2023-05-07T10:54:22;14.30;99.90
13835;DHT22;6988;52.614;13.500;2023-05-07T10:59:34;14.40;99.90
13835;DHT22;6988;52.614;13.500;2023-05-07T11:04:42;14.40;99.90
13835;DHT22;6988;52.614;13.500;2023-05-07T11:09:54;14.40;99.90
13835;DHT22;6988;52.614;13.500;2023-05-07T11:15:02;14.80;99.90
13835;DHT22;6988;52.614;13.500;2023-05-07T11:20:00;15.50;99.90
13835;DHT22;6988;52.614;13.500;2023-05-07T11:25:10;15.30;99.90
13835;DHT22;6988;52.614;13.500;2023-05-07T11:30:03;15.20;99.90
13835;DHT22;6988;52.614;13.500;2023-05-07T11:34:56;15.70;99.90
13835;DHT22;6988;52.614;13.500;2023-05-07T11:39:51;16.30;99.90
13835;DHT22;6988;52.614;13.500;2023-05-07T11:44:53;16.90;99.90
13835;DHT22;6988;52.614;13.500;2023-05-07T11:49:46;17.20;99.90
13835;DHT22;6988;52.614;13.500;2023-05-07T11:54:38;17.60;99.90
13835;DHT22;6988;52.614;13.500;2023-05-07T11:59:38;17.70;99.90
13835;DHT22;6988;52.614;13.500;2023-05-07T12:04:30;17.00;99.90
13835;DHT22;6988;52.614;13.500;2023-05-07T12:09:22;16.80;99.90
13835;DHT22;6988;52.614;13.500;2023-05-07T12:14:14;16.30;99.90
13835;DHT22;6988;52.614;13.500;2023-05-07T12:19:08;16.30;99.90
13835;DHT22;6988;52.614;13.500;2023-05-07T12:24:03;16.70;99.90
13835;DHT22;6988;52.614;13.500;2023-05-07T12:28:57;17.10;99.90
13835;DHT22;6988;52.614;13.500;2023-05-07T12:33:49;17.10;99.90
13835;DHT22;6988;52.614;13.500;2023-05-07T12:38:42;16.90;99.90
13835;DHT22;6988;52.614;13.500;2023-05-07T12:43:34;17.10;99.90
13835;DHT22;6988;52.614;13.500;2023-05-07T12:48:26;17.40;99.90
13835;DHT22;6988;52.614;13.500;2023-05-07T12:53:21;17.90;99.90
13835;DHT22;6988;52.614;13.500;2023-05-07T12:58:19;18.20;99.90
13835;DHT22;6988;52.614;13.500;2023-05-07T13:03:21;18.10;99.90
13835;DHT22;6988;52.614;13.500;2023-05-07T13:08:24;18.10;99.90
13835;DHT22;6988;52.614;13.500;2023-05-07T13:13:18;17.30;99.90
13835;DHT22;6988;52.614;13.500;2023-05-07T13:18:10;17.10;99.90
13835;DHT22;6988;52.614;13.500;2023-05-07T13:23:02;17.20;99.90
13835;DHT22;6988;52.614;13.500;2023-05-07T13:27:56;17.70;99.90
13835;DHT22;6988;52.614;13.500;2023-05-07T13:32:49;18.30;99.90
13835;DHT22;6988;52.614;13.500;2023-05-07T13:37:42;18.50;99.90
13835;DHT22;6988;52.614;13.500;2023-05-07T13:42:34;18.90;99.90
13835;DHT22;6988;52.614;13.500;2023-05-07T13:47:26;18.80;99.90
13835;DHT22;6988;52.614;13.500;2023-05-07T13:52:19;18.20;99.90
13835;DHT22;6988;52.614;13.500;2023-05-07T13:57:10;17.60;99.90
13835;DHT22;6988;52.614;13.500;2023-05-07T14:02:02;17.20;99.90
13835;DHT22;6988;52.614;13.500;2023-05-07T14:06:54;16.90;99.90
13835;DHT22;6988;52.614;13.500;2023-05-07T14:11:47;16.20;99.90
13835;DHT22;6988;52.614;13.500;2023-05-07T14:16:41;16.40;99.90
13835;DHT22;6988;52.614;13.500;2023-05-07T14:21:33;17.20;99.90
13835;DHT22;6988;52.614;13.500;2023-05-07T14:26:25;17.00;99.90
13835;DHT22;6988;52.614;13.500;2023-05-07T14:31:18;16.80;99.90
13835;DHT22;6988;52.614;13.500;2023-05-07T14:36:10;16.40;99.90
13835;DHT22;6988;52.614;13.500;2023-05-07T14:41:02;16.70;99.90
13835;DHT22;6988;52.614;13.500;2023-05-07T14:45:54;17.10;99.90
13835;DHT22;6988;52.614;13.500;2023-05-07T14:50:48;17.00;99.90
13835;DHT22;6988;52.614;13.500;2023-05-07T14:55:40;16.80;99.90
13835;DHT22;6988;52.614;13.500;2023-05-07T15:00:31;16.70;99.90
13835;DHT22;6988;52.614;13.500;2023-05-07T15:05:23;16.90;99.90
13835;DHT22;6988;52.614;13.500;2023-05-07T15:10:17;16.30;99.90
13835;DHT22;6988;52.614;13.500;2023-05-07T15:15:09;16.50;99.90
13835;DHT22;6988;52.614;13.500;2023-05-07T15:20:02;16.50;99.90
13835;DHT22;6988;52.614;13.500;2023-05-07T15:24:55;16.60;99.90
13835;DHT22;6988;52.614;13.500;2023-05-07T15:29:48;16.20;99.90
13835;DHT22;6988;52.614;13.500;2023-05-07T15:34:41;16.00;99.90
13835;DHT22;6988;52.614;13.500;2023-05-07T15:39:32;16.30;99.90
13835;DHT22;6988;52.614;13.500;2023-05-07T15:44:24;16.60;99.90
13835;DHT22;6988;52.614;13.500;2023-05-07T15:49:20;16.90;99.90
13835;DHT22;6988;52.614;13.500;2023-05-07T15:54:12;16.80;99.90
13835;DHT22;6988;52.614;13.500;2023-05-07T15:59:04;16.60;99.90
13835;DHT22;6988;52.614;13.500;2023-05-07T16:03:55;16.10;99.90
13835;DHT22;6988;52.614;13.500;2023-05-07T16:08:48;16.10;99.90
13835;DHT22;6988;52.614;13.500;2023-05-07T16:13:40;16.40;99.90
13835;DHT22;6988;52.614;13.500;2023-05-07T16:18:32;16.20;99.90
13835;DHT22;6988;52.614;13.500;2023-05-07T16:23:25;16.10;99.90
13835;DHT22;6988;52.614;13.500;2023-05-07T16:28:18;15.80;99.90
13835;DHT22;6988;52.614;13.500;2023-05-07T16:33:10;15.50;99.90
13835;DHT22;6988;52.614;13.500;2023-05-07T16:38:02;15.20;99.90
13835;DHT22;6988;52.614;13.500;2023-05-07T16:42:59;15.20;99.90
13835;DHT22;6988;52.614;13.500;2023-05-07T16:47:52;14.90;99.90
13835;DHT22;6988;52.614;13.500;2023-05-07T16:52:44;14.70;99.90
13835;DHT22;6988;52.614;13.500;2023-05-07T16:57:36;14.50;99.90
13835;DHT22;6988;52.614;13.500;2023-05-07T17:02:27;14.30;99.90
13835;DHT22;6988;52.614;13.500;2023-05-07T17:07:20;14.20;99.90
13835;DHT22;6988;52.614;13.500;2023-05-07T17:12:12;14.00;99.90
13835;DHT22;6988;52.614;13.500;2023-05-07T17:17:04;13.90;99.90
13835;DHT22;6988;52.614;13.500;2023-05-07T17:21:55;13.90;99.90
13835;DHT22;6988;52.614;13.500;2023-05-07T17:26:49;13.80;99.90
13835;DHT22;6988;52.614;13.500;2023-05-07T17:31:41;13.60;99.90
13835;DHT22;6988;52.614;13.500;2023-05-07T17:36:32;13.40;99.90
13835;DHT22;6988;52.614;13.500;2023-05-07T17:41:24;13.30;99.90
13835;DHT22;6988;52.614;13.500;2023-05-07T17:46:17;13.20;99.90
13835;DHT22;6988;52.614;13.500;2023-05-07T17:51:09;13.10;99.90
13835;DHT22;6988;52.614;13.500;2023-05-07T17:56:01;13.00;99.90
13835;DHT22;6988;52.614;13.500;2023-05-07T18:00:53;12.90;99.90
13835;DHT22;6988;52.614;13.500;2023-05-07T18:05:46;12.90;99.90
13835;DHT22;6988;52.614;13.500;2023-05-07T18:10:38;12.80;99.90
13835;DHT22;6988;52.614;13.500;2023-05-07T18:15:30;12.80;99.90
13835;DHT22;6988;52.614;13.500;2023-05-07T18:20:21;12.80;99.90
13835;DHT22;6988;52.614;13.500;2023-05-07T18:25:15;12.80;99.90
13835;DHT22;6988;52.614;13.500;2023-05-07T18:30:07;12.70;99.90
13835;DHT22;6988;52.614;13.500;2023-05-07T18:35:00;12.40;99.90
13835;DHT22;6988;52.614;13.500;2023-05-07T18:39:51;12.20;99.90
13835;DHT22;6988;52.614;13.500;2023-05-07T18:44:45;12.00;99.90
13835;DHT22;6988;52.614;13.500;2023-05-07T18:49:36;11.90;99.90
13835;DHT22;6988;52.614;13.500;2023-05-07T18:54:31;11.70;99.90
13835;DHT22;6988;52.614;13.500;2023-05-07T18:59:32;11.40;99.90
13835;DHT22;6988;52.614;13.500;2023-05-07T19:04:26;11.40;99.90
13835;DHT22;6988;52.614;13.500;2023-05-07T19:09:19;11.30;99.90
13835;DHT22;6988;52.614;13.500;2023-05-07T19:14:11;11.30;99.90
13835;DHT22;6988;52.614;13.500;2023-05-07T19:19:03;11.30;99.90
13835;DHT22;6988;52.614;13.500;2023-05-07T19:23:56;11.40;99.90
13835;DHT22;6988;52.614;13.500;2023-05-07T19:28:50;11.20;99.90
13835;DHT22;6988;52.614;13.500;2023-05-07T19:33:42;11.00;99.90
13835;DHT22;6988;52.614;13.500;2023-05-07T19:38:34;10.80;99.90
13835;DHT22;6988;52.614;13.500;2023-05-07T19:43:27;10.60;99.90
13835;DHT22;6988;52.614;13.500;2023-05-07T19:48:25;10.50;99.90
13835;DHT22;6988;52.614;13.500;2023-05-07T19:53:17;10.40;99.90
13835;DHT22;6988;52.614;13.500;2023-05-07T19:58:08;10.20;99.90
13835;DHT22;6988;52.614;13.500;2023-05-07T20:03:02;10.10;99.90
13835;DHT22;6988;52.614;13.500;2023-05-07T20:07:54;9.90;99.90
13835;DHT22;6988;52.614;13.500;2023-05-07T20:12:46;9.60;99.90
13835;DHT22;6988;52.614;13.500;2023-05-07T20:17:38;9.50;99.90
13835;DHT22;6988;52.614;13.500;2023-05-07T20:22:31;9.30;99.90
13835;DHT22;6988;52.614;13.500;2023-05-07T20:27:23;9.30;99.90
13835;DHT22;6988;52.614;13.500;2023-05-07T20:32:16;9.10;99.90
13835;DHT22;6988;52.614;13.500;2023-05-07T20:37:08;8.90;99.90
13835;DHT22;6988;52.614;13.500;2023-05-07T20:42:05;8.80;99.90
13835;DHT22;6988;52.614;13.500;2023-05-07T20:46:57;8.60;99.90
13835;DHT22;6988;52.614;13.500;2023-05-07T20:51:48;8.50;99.90
13835;DHT22;6988;52.614;13.500;2023-05-07T20:56:40;8.20;99.90
13835;DHT22;6988;52.614;13.500;2023-05-07T21:01:34;8.20;99.90
13835;DHT22;6988;52.614;13.500;2023-05-07T21:06:26;8.10;99.90
13835;DHT22;6988;52.614;13.500;2023-05-07T21:11:18;8.10;99.90
13835;DHT22;6988;52.614;13.500;2023-05-07T21:16:11;8.00;99.90
13835;DHT22;6988;52.614;13.500;2023-05-07T21:21:07;8.00;99.90
13835;DHT22;6988;52.614;13.500;2023-05-07T21:26:00;8.10;99.90
13835;DHT22;6988;52.614;13.500;2023-05-07T21:30:52;8.10;99.90
13835;DHT22;6988;52.614;13.500;2023-05-07T21:35:43;8.00;99.90
13835;DHT22;6988;52.614;13.500;2023-05-07T21:40:36;7.90;99.90
13835;DHT22;6988;52.614;13.500;2023-05-07T21:45:28;7.80;99.90
13835;DHT22;6988;52.614;13.500;2023-05-07T22:04:50;7.50;99.90
13835;DHT22;6988;52.614;13.500;2023-05-07T22:09:41;7.40;99.90
13835;DHT22;6988;52.614;13.500;2023-05-07T22:14:33;7.30;99.90
13835;DHT22;6988;52.614;13.500;2023-05-07T22:19:25;7.30;99.90
13835;DHT22;6988;52.614;13.500;2023-05-07T22:24:19;7.20;99.90
13835;DHT22;6988;52.614;13.500;2023-05-07T22:29:10;7.20;99.90
13835;DHT22;6988;52.614;13.500;2023-05-07T22:34:02;7.10;99.90
13835;DHT22;6988;52.614;13.500;2023-05-07T22:38:54;7.00;99.90
13835;DHT22;6988;52.614;13.500;2023-05-07T22:43:47;6.90;99.90
13835;DHT22;6988;52.614;13.500;2023-05-07T22:48:39;6.90;99.90
13835;DHT22;6988;52.614;13.500;2023-05-07T22:53:31;6.80;99.90
13835;DHT22;6988;52.614;13.500;2023-05-07T22:58:22;6.70;99.90
13835;DHT22;6988;52.614;13.500;2023-05-07T23:03:16;6.70;99.90
13835;DHT22;6988;52.614;13.500;2023-05-07T23:08:07;6.70;99.90
13835;DHT22;6988;52.614;13.500;2023-05-07T23:12:59;6.60;99.90
13835;DHT22;6988;52.614;13.500;2023-05-07T23:17:52;6.60;99.90
13835;DHT22;6988;52.614;13.500;2023-05-07T23:22:45;6.70;99.90
13835;DHT22;6988;52.614;13.500;2023-05-07T23:27:37;6.60;99.90
13835;DHT22;6988;52.614;13.500;2023-05-07T23:32:29;6.50;99.90
13835;DHT22;6988;52.614;13.500;2023-05-07T23:37:21;6.50;99.90
13835;DHT22;6988;52.614;13.500;2023-05-07T23:42:14;6.40;99.90
13835;DHT22;6988;52.614;13.500;2023-05-07T23:47:06;6.20;99.90
13835;DHT22;6988;52.614;13.500;2023-05-07T23:51:58;6.20;99.90
13835;DHT22;6988;52.614;13.500;2023-05-07T23:56:50;6.20;99.90
